sensor_id;sensor_type;location;lat;lon;timestamp;pressure;altitude;pressure_sealevel;temperature;humidity
37856;BME280;23694;43.274;26.924;2024-02-16T00:02:01;99481.19;;;5.97;100.00
37856;BME280;23694;43.274;26.924;2024-02-16T00:04:27;99489.38;;;6.09;100.00
37856;BME280;23694;43.274;26.924;2024-02-16T00:06:54;99487.25;;;6.18;100.00
37856;BME280;23694;43.274;26.924;2024-02-16T00:09:20;99483.09;;;6.14;100.00
37856;BME280;23694;43.274;26.924;2024-02-16T00:11:47;99484.97;;;6.11;100.00
37856;BME280;23694;43.274;26.924;2024-02-16T00:14:16;99479.19;;;6.04;100.00
37856;BME280;23694;43.274;26.924;2024-02-16T00:16:44;99480.28;;;5.98;100.00
37856;BME280;23694;43.274;26.924;2024-02-16T00:19:11;99482.28;;;5.92;100.00
37856;BME280;23694;43.274;26.924;2024-02-16T00:21:37;99484.25;;;5.85;100.00
37856;BME280;23694;43.274;26.924;2024-02-16T00:24:08;99478.50;;;5.77;100.00
37856;BME280;23694;43.274;26.924;2024-02-16T00:26:34;99477.38;;;5.83;100.00
37856;BME280;23694;43.274;26.924;2024-02-16T00:29:00;99469.34;;;5.90;100.00
37856;BME280;23694;43.274;26.924;2024-02-16T00:31:27;99471.03;;;5.91;100.00
37856;BME280;23694;43.274;26.924;2024-02-16T00:33:53;99479.75;;;5.90;100.00
37856;BME280;23694;43.274;26.924;2024-02-16T00:36:19;99470.69;;;5.77;100.00
37856;BME280;23694;43.274;26.924;2024-02-16T00:38:45;99477.63;;;5.77;100.00
37856;BME280;23694;43.274;26.924;2024-02-16T00:41:22;99483.50;;;5.82;100.00
37856;BME280;23694;43.274;26.924;2024-02-16T00:43:50;99477.09;;;5.92;100.00
37856;BME280;23694;43.274;26.924;2024-02-16T00:46:18;99470.06;;;5.94;100.00
37856;BME280;23694;43.274;26.924;2024-02-16T00:48:44;99468.31;;;5.94;100.00
37856;BME280;23694;43.274;26.924;2024-02-16T00:51:12;99467.78;;;5.85;100.00
37856;BME280;23694;43.274;26.924;2024-02-16T00:53:39;99462.59;;;5.85;100.00
37856;BME280;23694;43.274;26.924;2024-02-16T00:56:06;99462.06;;;5.98;100.00
37856;BME280;23694;43.274;26.924;2024-02-16T00:58:35;99456.53;;;5.84;100.00
37856;BME280;23694;43.274;26.924;2024-02-16T01:01:03;99472.50;;;5.75;100.00
37856;BME280;23694;43.274;26.924;2024-02-16T01:03:31;99452.75;;;5.71;100.00
37856;BME280;23694;43.274;26.924;2024-02-16T01:05:57;99462.59;;;5.63;100.00
37856;BME280;23694;43.274;26.924;2024-02-16T01:08:31;99448.56;;;5.67;100.00
37856;BME280;23694;43.274;26.924;2024-02-16T01:10:58;99463.81;;;5.76;100.00
37856;BME280;23694;43.274;26.924;2024-02-16T01:13:25;99460.53;;;5.71;100.00
37856;BME280;23694;43.274;26.924;2024-02-16T01:15:52;99449.97;;;5.76;100.00
37856;BME280;23694;43.274;26.924;2024-02-16T01:18:18;99446.56;;;5.73;100.00
37856;BME280;23694;43.274;26.924;2024-02-16T01:20:44;99446.88;;;5.88;100.00
37856;BME280;23694;43.274;26.924;2024-02-16T01:23:11;99448.16;;;5.99;100.00
37856;BME280;23694;43.274;26.924;2024-02-16T01:25:37;99449.47;;;5.89;100.00
37856;BME280;23694;43.274;26.924;2024-02-16T01:28:04;99446.78;;;5.91;100.00
37856;BME280;23694;43.274;26.924;2024-02-16T01:30:30;99449.78;;;5.80;100.00
37856;BME280;23694;43.274;26.924;2024-02-16T01:32:56;99453.28;;;5.79;100.00
37856;BME280;23694;43.274;26.924;2024-02-16T01:35:23;99443.66;;;5.81;100.00
37856;BME280;23694;43.274;26.924;2024-02-16T01:37:49;99458.19;;;5.87;100.00
37856;BME280;23694;43.274;26.924;2024-02-16T01:40:15;99459.13;;;5.84;100.00
37856;BME280;23694;43.274;26.924;2024-02-16T01:42:43;99464.53;;;5.80;100.00
37856;BME280;23694;43.274;26.924;2024-02-16T01:45:10;99465.31;;;5.82;100.00
37856;BME280;23694;43.274;26.924;2024-02-16T01:47:38;99460.94;;;5.82;100.00
37856;BME280;23694;43.274;26.924;2024-02-16T01:50:05;99457.88;;;5.72;100.00
37856;BME280;23694;43.274;26.924;2024-02-16T01:52:33;99456.50;;;5.86;100.00
37856;BME280;23694;43.274;26.924;2024-02-16T01:55:04;99454.47;;;5.94;100.00
37856;BME280;23694;43.274;26.924;2024-02-16T01:57:31;99462.66;;;6.05;100.00
37856;BME280;23694;43.274;26.924;2024-02-16T01:59:58;99455.91;;;6.01;100.00
37856;BME280;23694;43.274;26.924;2024-02-16T02:02:24;99456.03;;;5.98;100.00
37856;BME280;23694;43.274;26.924;2024-02-16T02:04:50;99465.31;;;6.03;100.00
37856;BME280;23694;43.274;26.924;2024-02-16T02:07:24;99470.06;;;5.94;100.00
37856;BME280;23694;43.274;26.924;2024-02-16T02:09:50;99466.00;;;5.87;100.00
37856;BME280;23694;43.274;26.924;2024-02-16T02:12:16;99468.16;;;5.76;100.00
37856;BME280;23694;43.274;26.924;2024-02-16T02:14:42;99461.44;;;5.70;100.00
37856;BME280;23694;43.274;26.924;2024-02-16T02:17:09;99462.72;;;5.60;100.00
37856;BME280;23694;43.274;26.924;2024-02-16T02:19:35;99463.81;;;5.54;100.00
37856;BME280;23694;43.274;26.924;2024-02-16T02:22:02;99466.72;;;5.68;100.00
37856;BME280;23694;43.274;26.924;2024-02-16T02:24:28;99466.53;;;5.73;100.00
37856;BME280;23694;43.274;26.924;2024-02-16T02:26:54;99469.72;;;5.80;100.00
37856;BME280;23694;43.274;26.924;2024-02-16T02:29:20;99476.06;;;5.72;100.00
37856;BME280;23694;43.274;26.924;2024-02-16T02:31:46;99476.47;;;5.84;100.00
37856;BME280;23694;43.274;26.924;2024-02-16T02:34:13;99476.25;;;5.68;100.00
37856;BME280;23694;43.274;26.924;2024-02-16T02:36:40;99472.09;;;5.42;100.00
37856;BME280;23694;43.274;26.924;2024-02-16T02:39:07;99490.94;;;5.47;100.00
37856;BME280;23694;43.274;26.924;2024-02-16T02:41:33;99479.16;;;5.38;100.00
37856;BME280;23694;43.274;26.924;2024-02-16T02:43:59;99488.28;;;5.49;100.00
37856;BME280;23694;43.274;26.924;2024-02-16T02:46:25;99490.66;;;5.55;100.00
37856;BME280;23694;43.274;26.924;2024-02-16T02:48:53;99491.53;;;5.32;100.00
37856;BME280;23694;43.274;26.924;2024-02-16T02:51:20;99498.75;;;5.47;100.00
37856;BME280;23694;43.274;26.924;2024-02-16T02:53:46;99489.66;;;5.35;100.00
37856;BME280;23694;43.274;26.924;2024-02-16T02:56:12;99502.47;;;5.40;100.00
37856;BME280;23694;43.274;26.924;2024-02-16T02:58:39;99497.41;;;5.37;100.00
37856;BME280;23694;43.274;26.924;2024-02-16T03:01:05;99505.03;;;5.41;100.00
37856;BME280;23694;43.274;26.924;2024-02-16T03:03:33;99504.28;;;5.38;100.00
37856;BME280;23694;43.274;26.924;2024-02-16T03:06:00;99512.94;;;5.38;100.00
37856;BME280;23694;43.274;26.924;2024-02-16T03:08:26;99507.78;;;5.37;100.00
37856;BME280;23694;43.274;26.924;2024-02-16T03:10:52;99505.31;;;5.34;100.00
37856;BME280;23694;43.274;26.924;2024-02-16T03:13:19;99504.53;;;5.32;100.00
37856;BME280;23694;43.274;26.924;2024-02-16T03:15:46;99509.50;;;5.38;100.00
37856;BME280;23694;43.274;26.924;2024-02-16T03:18:12;99505.38;;;5.32;100.00
37856;BME280;23694;43.274;26.924;2024-02-16T03:20:40;99503.97;;;5.24;100.00
37856;BME280;23694;43.274;26.924;2024-02-16T03:23:11;99511.97;;;5.18;100.00
37856;BME280;23694;43.274;26.924;2024-02-16T03:25:37;99507.56;;;5.20;100.00
37856;BME280;23694;43.274;26.924;2024-02-16T03:28:04;99513.16;;;5.32;100.00
37856;BME280;23694;43.274;26.924;2024-02-16T03:30:30;99507.84;;;5.35;100.00
37856;BME280;23694;43.274;26.924;2024-02-16T03:32:56;99501.25;;;5.27;100.00
37856;BME280;23694;43.274;26.924;2024-02-16T03:35:30;99513.59;;;5.44;100.00
37856;BME280;23694;43.274;26.924;2024-02-16T03:38:05;99507.19;;;5.30;100.00
37856;BME280;23694;43.274;26.924;2024-02-16T03:40:34;99514.97;;;5.30;100.00
37856;BME280;23694;43.274;26.924;2024-02-16T03:43:01;99523.38;;;5.37;100.00
37856;BME280;23694;43.274;26.924;2024-02-16T03:45:27;99526.88;;;5.36;100.00
37856;BME280;23694;43.274;26.924;2024-02-16T03:47:53;99525.91;;;5.38;100.00
37856;BME280;23694;43.274;26.924;2024-02-16T03:50:20;99526.94;;;5.34;100.00
37856;BME280;23694;43.274;26.924;2024-02-16T03:52:47;99531.59;;;5.26;100.00
37856;BME280;23694;43.274;26.924;2024-02-16T03:55:14;99522.16;;;5.24;100.00
37856;BME280;23694;43.274;26.924;2024-02-16T03:57:40;99537.38;;;5.33;100.00
37856;BME280;23694;43.274;26.924;2024-02-16T04:00:09;99538.69;;;5.21;100.00
37856;BME280;23694;43.274;26.924;2024-02-16T04:02:39;99539.44;;;5.25;100.00
37856;BME280;23694;43.274;26.924;2024-02-16T04:05:05;99534.06;;;5.29;100.00
37856;BME280;23694;43.274;26.924;2024-02-16T04:07:35;99529.41;;;5.14;100.00
37856;BME280;23694;43.274;26.924;2024-02-16T04:10:02;99533.59;;;5.18;100.00
37856;BME280;23694;43.274;26.924;2024-02-16T04:12:28;99514.63;;;5.16;100.00
37856;BME280;23694;43.274;26.924;2024-02-16T04:14:54;99537.03;;;5.19;100.00
37856;BME280;23694;43.274;26.924;2024-02-16T04:17:21;99540.53;;;5.18;100.00
37856;BME280;23694;43.274;26.924;2024-02-16T04:19:48;99543.72;;;5.26;100.00
37856;BME280;23694;43.274;26.924;2024-02-16T04:22:14;99538.78;;;5.18;100.00
37856;BME280;23694;43.274;26.924;2024-02-16T04:24:40;99537.09;;;5.17;100.00
37856;BME280;23694;43.274;26.924;2024-02-16T04:27:06;99551.50;;;5.26;100.00
37856;BME280;23694;43.274;26.924;2024-02-16T04:29:33;99555.13;;;5.22;100.00
37856;BME280;23694;43.274;26.924;2024-02-16T04:32:00;99550.19;;;5.14;100.00
37856;BME280;23694;43.274;26.924;2024-02-16T04:34:27;99552.03;;;5.10;100.00
37856;BME280;23694;43.274;26.924;2024-02-16T04:36:54;99546.63;;;5.17;100.00
37856;BME280;23694;43.274;26.924;2024-02-16T04:39:20;99549.50;;;5.09;100.00
37856;BME280;23694;43.274;26.924;2024-02-16T04:41:47;99560.38;;;5.20;100.00
37856;BME280;23694;43.274;26.924;2024-02-16T04:44:13;99559.00;;;5.10;100.00
37856;BME280;23694;43.274;26.924;2024-02-16T04:46:40;99571.84;;;5.13;100.00
37856;BME280;23694;43.274;26.924;2024-02-16T04:49:06;99575.59;;;5.06;100.00
37856;BME280;23694;43.274;26.924;2024-02-16T04:51:33;99577.19;;;4.85;100.00
37856;BME280;23694;43.274;26.924;2024-02-16T04:53:59;99568.41;;;4.89;100.00
37856;BME280;23694;43.274;26.924;2024-02-16T04:56:25;99574.91;;;5.01;100.00
37856;BME280;23694;43.274;26.924;2024-02-16T04:58:51;99571.97;;;5.10;100.00
37856;BME280;23694;43.274;26.924;2024-02-16T05:01:17;99575.00;;;4.98;100.00
37856;BME280;23694;43.274;26.924;2024-02-16T05:03:43;99575.19;;;4.93;100.00
37856;BME280;23694;43.274;26.924;2024-02-16T05:06:10;99581.44;;;4.88;100.00
37856;BME280;23694;43.274;26.924;2024-02-16T05:08:36;99582.91;;;4.95;100.00
37856;BME280;23694;43.274;26.924;2024-02-16T05:11:02;99582.63;;;5.02;100.00
37856;BME280;23694;43.274;26.924;2024-02-16T05:13:29;99583.88;;;4.92;100.00
37856;BME280;23694;43.274;26.924;2024-02-16T05:15:55;99581.91;;;4.99;100.00
37856;BME280;23694;43.274;26.924;2024-02-16T05:18:22;99592.81;;;5.08;100.00
37856;BME280;23694;43.274;26.924;2024-02-16T05:20:48;99593.59;;;5.10;100.00
37856;BME280;23694;43.274;26.924;2024-02-16T05:23:15;99601.66;;;5.03;100.00
37856;BME280;23694;43.274;26.924;2024-02-16T05:25:41;99589.63;;;5.00;100.00
37856;BME280;23694;43.274;26.924;2024-02-16T05:28:08;99593.75;;;5.06;100.00
37856;BME280;23694;43.274;26.924;2024-02-16T05:30:35;99589.88;;;5.18;100.00
37856;BME280;23694;43.274;26.924;2024-02-16T05:33:01;99598.63;;;5.15;100.00
37856;BME280;23694;43.274;26.924;2024-02-16T05:35:29;99582.97;;;4.93;100.00
37856;BME280;23694;43.274;26.924;2024-02-16T05:37:59;99607.53;;;5.08;100.00
37856;BME280;23694;43.274;26.924;2024-02-16T05:40:33;99602.22;;;5.11;100.00
37856;BME280;23694;43.274;26.924;2024-02-16T05:43:10;99610.28;;;5.03;100.00
37856;BME280;23694;43.274;26.924;2024-02-16T05:45:37;99616.53;;;4.98;100.00
37856;BME280;23694;43.274;26.924;2024-02-16T05:48:04;99615.16;;;4.88;100.00
37856;BME280;23694;43.274;26.924;2024-02-16T05:50:30;99615.28;;;4.85;100.00
37856;BME280;23694;43.274;26.924;2024-02-16T05:52:56;99615.97;;;4.90;100.00
37856;BME280;23694;43.274;26.924;2024-02-16T05:55:23;99624.50;;;4.93;100.00
37856;BME280;23694;43.274;26.924;2024-02-16T05:57:50;99621.47;;;4.81;100.00
37856;BME280;23694;43.274;26.924;2024-02-16T06:00:17;99625.59;;;4.86;100.00
37856;BME280;23694;43.274;26.924;2024-02-16T06:02:47;99632.50;;;4.87;100.00
37856;BME280;23694;43.274;26.924;2024-02-16T06:05:32;99631.13;;;5.02;100.00
37856;BME280;23694;43.274;26.924;2024-02-16T06:08:00;99627.78;;;4.98;100.00
37856;BME280;23694;43.274;26.924;2024-02-16T06:10:27;99625.50;;;5.14;100.00
37856;BME280;23694;43.274;26.924;2024-02-16T06:12:55;99625.94;;;5.27;100.00
37856;BME280;23694;43.274;26.924;2024-02-16T06:15:22;99617.47;;;5.22;100.00
37856;BME280;23694;43.274;26.924;2024-02-16T06:17:49;99639.97;;;5.21;100.00
37856;BME280;23694;43.274;26.924;2024-02-16T06:20:16;99638.81;;;5.30;100.00
37856;BME280;23694;43.274;26.924;2024-02-16T06:22:42;99643.38;;;5.23;100.00
37856;BME280;23694;43.274;26.924;2024-02-16T06:25:10;99645.19;;;5.21;100.00
37856;BME280;23694;43.274;26.924;2024-02-16T06:27:36;99647.06;;;5.16;100.00
37856;BME280;23694;43.274;26.924;2024-02-16T06:30:03;99642.03;;;5.12;100.00
37856;BME280;23694;43.274;26.924;2024-02-16T06:32:30;99646.59;;;5.05;100.00
37856;BME280;23694;43.274;26.924;2024-02-16T06:34:58;99631.00;;;5.05;100.00
37856;BME280;23694;43.274;26.924;2024-02-16T06:37:24;99633.72;;;5.02;100.00
37856;BME280;23694;43.274;26.924;2024-02-16T06:39:50;99641.06;;;5.14;100.00
37856;BME280;23694;43.274;26.924;2024-02-16T06:42:17;99644.41;;;5.18;100.00
37856;BME280;23694;43.274;26.924;2024-02-16T06:44:43;99646.75;;;5.00;100.00
37856;BME280;23694;43.274;26.924;2024-02-16T06:47:09;99645.16;;;4.96;100.00
37856;BME280;23694;43.274;26.924;2024-02-16T06:49:35;99649.72;;;5.15;100.00
37856;BME280;23694;43.274;26.924;2024-02-16T06:52:01;99655.13;;;5.08;100.00
37856;BME280;23694;43.274;26.924;2024-02-16T06:54:28;99651.50;;;5.13;100.00
37856;BME280;23694;43.274;26.924;2024-02-16T06:56:55;99658.63;;;5.07;100.00
37856;BME280;23694;43.274;26.924;2024-02-16T06:59:21;99650.78;;;5.09;100.00
37856;BME280;23694;43.274;26.924;2024-02-16T07:01:49;99656.97;;;5.05;100.00
37856;BME280;23694;43.274;26.924;2024-02-16T07:04:15;99650.88;;;5.06;100.00
37856;BME280;23694;43.274;26.924;2024-02-16T07:06:41;99659.25;;;5.14;100.00
37856;BME280;23694;43.274;26.924;2024-02-16T07:09:07;99653.00;;;5.20;100.00
37856;BME280;23694;43.274;26.924;2024-02-16T07:11:34;99663.50;;;5.17;100.00
37856;BME280;23694;43.274;26.924;2024-02-16T07:14:00;99654.00;;;5.16;100.00
37856;BME280;23694;43.274;26.924;2024-02-16T07:16:28;99654.22;;;5.09;100.00
37856;BME280;23694;43.274;26.924;2024-02-16T07:18:54;99657.94;;;5.02;100.00
37856;BME280;23694;43.274;26.924;2024-02-16T07:21:21;99655.66;;;5.18;100.00
37856;BME280;23694;43.274;26.924;2024-02-16T07:23:49;99649.28;;;5.02;100.00
37856;BME280;23694;43.274;26.924;2024-02-16T07:26:17;99653.47;;;5.06;100.00
37856;BME280;23694;43.274;26.924;2024-02-16T07:28:44;99649.06;;;5.08;100.00
37856;BME280;23694;43.274;26.924;2024-02-16T07:31:11;99667.72;;;5.19;100.00
37856;BME280;23694;43.274;26.924;2024-02-16T07:33:40;99665.75;;;5.27;100.00
37856;BME280;23694;43.274;26.924;2024-02-16T07:36:07;99660.59;;;5.26;100.00
37856;BME280;23694;43.274;26.924;2024-02-16T07:38:34;99656.78;;;5.36;100.00
37856;BME280;23694;43.274;26.924;2024-02-16T07:41:00;99666.56;;;5.53;100.00
37856;BME280;23694;43.274;26.924;2024-02-16T07:43:28;99665.97;;;5.45;100.00
37856;BME280;23694;43.274;26.924;2024-02-16T07:45:54;99661.41;;;5.28;100.00
37856;BME280;23694;43.274;26.924;2024-02-16T07:48:21;99675.81;;;5.36;100.00
37856;BME280;23694;43.274;26.924;2024-02-16T07:50:48;99676.97;;;5.28;100.00
37856;BME280;23694;43.274;26.924;2024-02-16T07:53:16;99685.28;;;5.37;100.00
37856;BME280;23694;43.274;26.924;2024-02-16T07:55:42;99672.97;;;5.43;100.00
37856;BME280;23694;43.274;26.924;2024-02-16T07:58:09;99685.88;;;5.46;100.00
37856;BME280;23694;43.274;26.924;2024-02-16T08:00:36;99681.22;;;5.30;100.00
37856;BME280;23694;43.274;26.924;2024-02-16T08:03:03;99682.69;;;5.37;100.00
37856;BME280;23694;43.274;26.924;2024-02-16T08:05:30;99680.84;;;5.41;100.00
37856;BME280;23694;43.274;26.924;2024-02-16T08:07:57;99679.34;;;5.34;100.00
37856;BME280;23694;43.274;26.924;2024-02-16T08:10:23;99684.16;;;5.45;100.00
37856;BME280;23694;43.274;26.924;2024-02-16T08:12:51;99687.28;;;5.54;100.00
37856;BME280;23694;43.274;26.924;2024-02-16T08:15:18;99686.13;;;5.38;100.00
37856;BME280;23694;43.274;26.924;2024-02-16T08:17:52;99676.88;;;5.31;100.00
37856;BME280;23694;43.274;26.924;2024-02-16T08:20:19;99693.78;;;5.43;100.00
37856;BME280;23694;43.274;26.924;2024-02-16T08:22:46;99687.31;;;5.29;100.00
37856;BME280;23694;43.274;26.924;2024-02-16T08:25:13;99684.72;;;5.29;100.00
37856;BME280;23694;43.274;26.924;2024-02-16T08:27:39;99692.50;;;5.29;100.00
37856;BME280;23694;43.274;26.924;2024-02-16T08:30:07;99685.66;;;5.27;100.00
37856;BME280;23694;43.274;26.924;2024-02-16T08:32:36;99695.94;;;5.30;100.00
37856;BME280;23694;43.274;26.924;2024-02-16T08:35:28;99695.19;;;5.51;100.00
37856;BME280;23694;43.274;26.924;2024-02-16T08:37:56;99690.44;;;5.62;100.00
37856;BME280;23694;43.274;26.924;2024-02-16T08:40:23;99686.56;;;5.74;100.00
37856;BME280;23694;43.274;26.924;2024-02-16T08:42:51;99688.97;;;5.79;100.00
37856;BME280;23694;43.274;26.924;2024-02-16T08:45:17;99689.94;;;5.76;100.00
37856;BME280;23694;43.274;26.924;2024-02-16T08:47:44;99685.47;;;5.56;100.00
37856;BME280;23694;43.274;26.924;2024-02-16T08:50:10;99692.38;;;5.57;100.00
37856;BME280;23694;43.274;26.924;2024-02-16T08:52:38;99688.03;;;5.58;100.00
37856;BME280;23694;43.274;26.924;2024-02-16T08:55:04;99691.31;;;5.63;100.00
37856;BME280;23694;43.274;26.924;2024-02-16T08:57:33;99692.44;;;5.56;100.00
37856;BME280;23694;43.274;26.924;2024-02-16T09:00:00;99690.69;;;5.56;100.00
37856;BME280;23694;43.274;26.924;2024-02-16T09:02:26;99697.50;;;5.59;100.00
37856;BME280;23694;43.274;26.924;2024-02-16T09:04:52;99709.38;;;5.66;100.00
37856;BME280;23694;43.274;26.924;2024-02-16T09:07:19;99702.50;;;5.65;100.00
37856;BME280;23694;43.274;26.924;2024-02-16T09:09:45;99709.00;;;5.77;100.00
37856;BME280;23694;43.274;26.924;2024-02-16T09:12:12;99697.78;;;5.74;100.00
37856;BME280;23694;43.274;26.924;2024-02-16T09:14:38;99705.47;;;5.78;100.00
37856;BME280;23694;43.274;26.924;2024-02-16T09:17:05;99713.56;;;5.95;100.00
37856;BME280;23694;43.274;26.924;2024-02-16T09:19:31;99700.75;;;5.89;100.00
37856;BME280;23694;43.274;26.924;2024-02-16T09:21:57;99706.09;;;5.86;100.00
37856;BME280;23694;43.274;26.924;2024-02-16T09:24:26;99703.50;;;5.84;100.00
37856;BME280;23694;43.274;26.924;2024-02-16T09:26:57;99707.22;;;5.77;100.00
37856;BME280;23694;43.274;26.924;2024-02-16T09:29:25;99705.75;;;5.70;100.00
37856;BME280;23694;43.274;26.924;2024-02-16T09:31:52;99711.59;;;5.77;100.00
37856;BME280;23694;43.274;26.924;2024-02-16T09:34:20;99703.22;;;5.68;100.00
37856;BME280;23694;43.274;26.924;2024-02-16T09:36:46;99712.09;;;5.63;100.00
37856;BME280;23694;43.274;26.924;2024-02-16T09:39:13;99713.78;;;5.64;100.00
37856;BME280;23694;43.274;26.924;2024-02-16T09:41:42;99710.56;;;5.57;100.00
37856;BME280;23694;43.274;26.924;2024-02-16T09:44:11;99710.66;;;5.54;100.00
37856;BME280;23694;43.274;26.924;2024-02-16T09:46:37;99721.84;;;5.56;100.00
37856;BME280;23694;43.274;26.924;2024-02-16T09:49:04;99720.16;;;5.55;100.00
37856;BME280;23694;43.274;26.924;2024-02-16T09:51:31;99704.28;;;5.63;100.00
37856;BME280;23694;43.274;26.924;2024-02-16T09:53:57;99711.97;;;5.66;100.00
37856;BME280;23694;43.274;26.924;2024-02-16T09:56:24;99708.75;;;5.59;100.00
37856;BME280;23694;43.274;26.924;2024-02-16T09:58:51;99710.97;;;5.70;100.00
37856;BME280;23694;43.274;26.924;2024-02-16T10:01:19;99712.09;;;5.63;100.00
37856;BME280;23694;43.274;26.924;2024-02-16T10:03:47;99710.84;;;5.50;100.00
37856;BME280;23694;43.274;26.924;2024-02-16T10:06:14;99701.22;;;5.52;100.00
37856;BME280;23694;43.274;26.924;2024-02-16T10:08:51;99694.75;;;5.63;100.00
37856;BME280;23694;43.274;26.924;2024-02-16T10:11:20;99689.44;;;5.66;100.00
37856;BME280;23694;43.274;26.924;2024-02-16T10:14:01;99683.22;;;5.70;100.00
37856;BME280;23694;43.274;26.924;2024-02-16T10:16:29;99682.38;;;5.70;100.00
37856;BME280;23694;43.274;26.924;2024-02-16T10:18:57;99685.72;;;5.73;100.00
37856;BME280;23694;43.274;26.924;2024-02-16T10:21:30;99680.28;;;5.80;100.00
37856;BME280;23694;43.274;26.924;2024-02-16T10:24:12;99677.13;;;5.71;100.00
37856;BME280;23694;43.274;26.924;2024-02-16T10:26:43;99683.59;;;5.83;100.00
37856;BME280;23694;43.274;26.924;2024-02-16T10:29:10;99684.34;;;5.63;100.00
37856;BME280;23694;43.274;26.924;2024-02-16T10:31:40;99672.75;;;5.72;100.00
37856;BME280;23694;43.274;26.924;2024-02-16T10:34:07;99682.03;;;5.79;100.00
37856;BME280;23694;43.274;26.924;2024-02-16T10:36:37;99681.28;;;5.76;100.00
37856;BME280;23694;43.274;26.924;2024-02-16T10:39:06;99688.59;;;5.91;100.00
37856;BME280;23694;43.274;26.924;2024-02-16T10:41:34;99673.50;;;6.00;100.00
37856;BME280;23694;43.274;26.924;2024-02-16T10:44:02;99677.78;;;6.01;100.00
37856;BME280;23694;43.274;26.924;2024-02-16T10:46:30;99672.59;;;6.01;100.00
37856;BME280;23694;43.274;26.924;2024-02-16T10:49:00;99669.53;;;5.90;100.00
37856;BME280;23694;43.274;26.924;2024-02-16T10:51:54;99671.47;;;5.84;100.00
37856;BME280;23694;43.274;26.924;2024-02-16T10:54:27;99679.50;;;5.78;100.00
37856;BME280;23694;43.274;26.924;2024-02-16T10:56:55;99682.56;;;5.89;100.00
37856;BME280;23694;43.274;26.924;2024-02-16T10:59:21;99677.38;;;5.89;100.00
37856;BME280;23694;43.274;26.924;2024-02-16T11:01:48;99681.00;;;5.83;100.00
37856;BME280;23694;43.274;26.924;2024-02-16T11:04:18;99682.94;;;5.78;100.00
37856;BME280;23694;43.274;26.924;2024-02-16T11:06:48;99685.41;;;5.81;100.00
37856;BME280;23694;43.274;26.924;2024-02-16T11:09:35;99688.66;;;5.89;100.00
37856;BME280;23694;43.274;26.924;2024-02-16T11:12:03;99687.63;;;5.93;100.00
37856;BME280;23694;43.274;26.924;2024-02-16T11:17:15;99681.28;;;6.00;100.00
37856;BME280;23694;43.274;26.924;2024-02-16T11:19:47;99677.66;;;6.04;100.00
37856;BME280;23694;43.274;26.924;2024-02-16T11:22:17;99679.06;;;6.13;100.00
37856;BME280;23694;43.274;26.924;2024-02-16T11:24:46;99666.72;;;6.18;100.00
37856;BME280;23694;43.274;26.924;2024-02-16T11:27:13;99671.09;;;6.18;100.00
37856;BME280;23694;43.274;26.924;2024-02-16T11:29:45;99663.09;;;6.22;100.00
37856;BME280;23694;43.274;26.924;2024-02-16T11:32:12;99674.78;;;6.34;100.00
37856;BME280;23694;43.274;26.924;2024-02-16T11:34:38;99668.34;;;6.43;100.00
37856;BME280;23694;43.274;26.924;2024-02-16T11:37:07;99661.28;;;6.46;100.00
37856;BME280;23694;43.274;26.924;2024-02-16T11:39:34;99668.28;;;6.44;100.00
37856;BME280;23694;43.274;26.924;2024-02-16T11:42:04;99662.97;;;6.47;100.00
37856;BME280;23694;43.274;26.924;2024-02-16T11:44:35;99666.72;;;6.40;100.00
37856;BME280;23694;43.274;26.924;2024-02-16T11:47:03;99647.72;;;6.38;100.00
37856;BME280;23694;43.274;26.924;2024-02-16T11:49:29;99669.44;;;6.37;100.00
37856;BME280;23694;43.274;26.924;2024-02-16T11:52:04;99661.09;;;6.29;100.00
37856;BME280;23694;43.274;26.924;2024-02-16T11:54:30;99669.94;;;6.25;100.00
37856;BME280;23694;43.274;26.924;2024-02-16T11:56:58;99656.03;;;6.26;100.00
37856;BME280;23694;43.274;26.924;2024-02-16T11:59:24;99652.38;;;6.30;100.00
37856;BME280;23694;43.274;26.924;2024-02-16T12:01:54;99649.72;;;6.31;100.00
37856;BME280;23694;43.274;26.924;2024-02-16T12:04:28;99638.78;;;6.23;100.00
37856;BME280;23694;43.274;26.924;2024-02-16T12:06:59;99647.53;;;6.21;100.00
37856;BME280;23694;43.274;26.924;2024-02-16T12:09:25;99636.53;;;6.14;100.00
37856;BME280;23694;43.274;26.924;2024-02-16T12:11:53;99647.78;;;6.15;100.00
37856;BME280;23694;43.274;26.924;2024-02-16T12:14:23;99648.50;;;6.18;100.00
37856;BME280;23694;43.274;26.924;2024-02-16T12:16:51;99656.06;;;6.24;100.00
37856;BME280;23694;43.274;26.924;2024-02-16T12:19:21;99645.72;;;6.23;100.00
37856;BME280;23694;43.274;26.924;2024-02-16T12:21:51;99639.38;;;6.30;100.00
37856;BME280;23694;43.274;26.924;2024-02-16T12:24:19;99646.59;;;6.23;100.00
37856;BME280;23694;43.274;26.924;2024-02-16T12:26:45;99643.06;;;6.24;100.00
37856;BME280;23694;43.274;26.924;2024-02-16T12:29:12;99649.00;;;6.28;100.00
37856;BME280;23694;43.274;26.924;2024-02-16T12:31:45;99652.31;;;6.31;100.00
37856;BME280;23694;43.274;26.924;2024-02-16T12:34:13;99638.41;;;6.32;100.00
37856;BME280;23694;43.274;26.924;2024-02-16T12:36:40;99650.88;;;6.24;100.00
37856;BME280;23694;43.274;26.924;2024-02-16T12:39:07;99638.16;;;6.17;100.00
37856;BME280;23694;43.274;26.924;2024-02-16T12:41:38;99651.66;;;6.26;100.00
37856;BME280;23694;43.274;26.924;2024-02-16T12:44:05;99650.03;;;6.24;100.00
37856;BME280;23694;43.274;26.924;2024-02-16T12:46:32;99645.50;;;6.07;100.00
37856;BME280;23694;43.274;26.924;2024-02-16T12:48:58;99648.88;;;6.09;100.00
37856;BME280;23694;43.274;26.924;2024-02-16T12:51:24;99644.69;;;6.05;100.00
37856;BME280;23694;43.274;26.924;2024-02-16T12:53:51;99649.84;;;6.07;100.00
37856;BME280;23694;43.274;26.924;2024-02-16T12:56:18;99661.28;;;6.02;100.00